sensor_id;sensor_type;location;lat;lon;timestamp;P1;durP1;ratioP1;P2;durP2;ratioP2
64291;SDS011;50628;51.008;13.658;2023-04-08T00:02:56;11.67;;;9.50;;
64291;SDS011;50628;51.008;13.658;2023-04-08T00:07:59;10.30;;;8.77;;
64291;SDS011;50628;51.008;13.658;2023-04-08T00:13:01;10.70;;;9.27;;
64291;SDS011;50628;51.008;13.658;2023-04-08T00:18:03;10.17;;;8.40;;
64291;SDS011;50628;51.008;13.658;2023-04-08T00:23:06;10.57;;;8.63;;
64291;SDS011;50628;51.008;13.658;2023-04-08T00:28:08;10.37;;;9.00;;
64291;SDS011;50628;51.008;13.658;2023-04-08T00:33:10;11.00;;;8.73;;
64291;SDS011;50628;51.008;13.658;2023-04-08T00:38:13;10.33;;;8.30;;
64291;SDS011;50628;51.008;13.658;2023-04-08T00:43:15;10.30;;;8.40;;
64291;SDS011;50628;51.008;13.658;2023-04-08T00:48:20;10.63;;;8.90;;
64291;SDS011;50628;51.008;13.658;2023-04-08T00:53:23;12.10;;;9.10;;
64291;SDS011;50628;51.008;13.658;2023-04-08T00:58:25;12.73;;;9.33;;
64291;SDS011;50628;51.008;13.658;2023-04-08T01:03:29;13.00;;;9.70;;
64291;SDS011;50628;51.008;13.658;2023-04-08T01:08:43;12.03;;;9.60;;
64291;SDS011;50628;51.008;13.658;2023-04-08T01:13:47;13.33;;;9.40;;
64291;SDS011;50628;51.008;13.658;2023-04-08T01:18:54;13.77;;;8.87;;
64291;SDS011;50628;51.008;13.658;2023-04-08T01:24:00;15.00;;;9.20;;
64291;SDS011;50628;51.008;13.658;2023-04-08T01:29:09;13.67;;;8.87;;
64291;SDS011;50628;51.008;13.658;2023-04-08T01:34:13;11.80;;;8.90;;
64291;SDS011;50628;51.008;13.658;2023-04-08T01:39:17;13.23;;;10.00;;
64291;SDS011;50628;51.008;13.658;2023-04-08T01:44:23;13.77;;;9.67;;
64291;SDS011;50628;51.008;13.658;2023-04-08T01:49:26;11.57;;;8.60;;
64291;SDS011;50628;51.008;13.658;2023-04-08T01:54:30;11.53;;;8.97;;
64291;SDS011;50628;51.008;13.658;2023-04-08T01:59:35;12.70;;;8.53;;
64291;SDS011;50628;51.008;13.658;2023-04-08T02:04:40;10.83;;;7.70;;
64291;SDS011;50628;51.008;13.658;2023-04-08T02:09:42;12.63;;;8.37;;
64291;SDS011;50628;51.008;13.658;2023-04-08T02:14:45;13.97;;;8.27;;
64291;SDS011;50628;51.008;13.658;2023-04-08T02:19:59;12.10;;;8.57;;
64291;SDS011;50628;51.008;13.658;2023-04-08T02:25:07;11.93;;;8.27;;
64291;SDS011;50628;51.008;13.658;2023-04-08T02:30:15;13.90;;;9.17;;
64291;SDS011;50628;51.008;13.658;2023-04-08T02:35:17;11.43;;;7.40;;
64291;SDS011;50628;51.008;13.658;2023-04-08T02:40:21;12.07;;;7.57;;
64291;SDS011;50628;51.008;13.658;2023-04-08T02:45:29;10.20;;;7.77;;
64291;SDS011;50628;51.008;13.658;2023-04-08T02:50:32;10.43;;;7.23;;
64291;SDS011;50628;51.008;13.658;2023-04-08T02:55:34;7.70;;;5.73;;
64291;SDS011;50628;51.008;13.658;2023-04-08T03:00:37;8.90;;;6.83;;
64291;SDS011;50628;51.008;13.658;2023-04-08T03:05:39;7.47;;;6.00;;
64291;SDS011;50628;51.008;13.658;2023-04-08T03:10:41;6.70;;;4.63;;
64291;SDS011;50628;51.008;13.658;2023-04-08T03:15:44;6.17;;;4.77;;
64291;SDS011;50628;51.008;13.658;2023-04-08T03:20:46;7.53;;;5.77;;
64291;SDS011;50628;51.008;13.658;2023-04-08T03:25:48;6.70;;;4.87;;
64291;SDS011;50628;51.008;13.658;2023-04-08T03:30:51;7.13;;;5.40;;
64291;SDS011;50628;51.008;13.658;2023-04-08T03:35:53;7.63;;;5.20;;
64291;SDS011;50628;51.008;13.658;2023-04-08T03:40:55;6.13;;;4.60;;
64291;SDS011;50628;51.008;13.658;2023-04-08T03:45:58;4.63;;;4.03;;
64291;SDS011;50628;51.008;13.658;2023-04-08T03:51:00;5.43;;;4.10;;
64291;SDS011;50628;51.008;13.658;2023-04-08T03:56:02;4.63;;;3.60;;
64291;SDS011;50628;51.008;13.658;2023-04-08T04:01:05;3.27;;;2.97;;
64291;SDS011;50628;51.008;13.658;2023-04-08T04:06:07;5.60;;;3.67;;
64291;SDS011;50628;51.008;13.658;2023-04-08T04:11:09;5.30;;;3.27;;
64291;SDS011;50628;51.008;13.658;2023-04-08T04:16:12;4.03;;;3.43;;
64291;SDS011;50628;51.008;13.658;2023-04-08T04:21:14;5.47;;;4.03;;
64291;SDS011;50628;51.008;13.658;2023-04-08T04:26:16;9.23;;;6.47;;
64291;SDS011;50628;51.008;13.658;2023-04-08T04:31:19;6.07;;;3.70;;
64291;SDS011;50628;51.008;13.658;2023-04-08T04:36:22;6.23;;;4.10;;
64291;SDS011;50628;51.008;13.658;2023-04-08T04:41:24;8.13;;;5.13;;
64291;SDS011;50628;51.008;13.658;2023-04-08T04:46:27;7.97;;;5.40;;
64291;SDS011;50628;51.008;13.658;2023-04-08T04:51:30;7.27;;;5.10;;
64291;SDS011;50628;51.008;13.658;2023-04-08T04:56:32;9.13;;;5.50;;
64291;SDS011;50628;51.008;13.658;2023-04-08T05:01:35;7.43;;;5.27;;
64291;SDS011;50628;51.008;13.658;2023-04-08T05:06:37;12.17;;;7.13;;
64291;SDS011;50628;51.008;13.658;2023-04-08T05:11:39;9.20;;;7.10;;
64291;SDS011;50628;51.008;13.658;2023-04-08T05:16:42;7.60;;;5.47;;
64291;SDS011;50628;51.008;13.658;2023-04-08T05:21:44;6.67;;;5.33;;
64291;SDS011;50628;51.008;13.658;2023-04-08T05:26:46;6.80;;;5.90;;
64291;SDS011;50628;51.008;13.658;2023-04-08T05:31:52;7.07;;;5.60;;
64291;SDS011;50628;51.008;13.658;2023-04-08T05:36:55;7.63;;;5.67;;
64291;SDS011;50628;51.008;13.658;2023-04-08T05:41:57;9.13;;;6.07;;
64291;SDS011;50628;51.008;13.658;2023-04-08T05:47:00;9.30;;;6.07;;
64291;SDS011;50628;51.008;13.658;2023-04-08T05:52:02;9.93;;;6.27;;
64291;SDS011;50628;51.008;13.658;2023-04-08T05:57:04;8.90;;;6.93;;
64291;SDS011;50628;51.008;13.658;2023-04-08T06:02:07;11.73;;;8.03;;
64291;SDS011;50628;51.008;13.658;2023-04-08T06:07:09;10.40;;;7.23;;
64291;SDS011;50628;51.008;13.658;2023-04-08T06:12:11;11.13;;;7.50;;
64291;SDS011;50628;51.008;13.658;2023-04-08T06:17:14;9.30;;;7.10;;
64291;SDS011;50628;51.008;13.658;2023-04-08T06:22:16;10.70;;;8.07;;
64291;SDS011;50628;51.008;13.658;2023-04-08T06:27:18;16.60;;;7.90;;
64291;SDS011;50628;51.008;13.658;2023-04-08T06:32:21;9.53;;;8.00;;
64291;SDS011;50628;51.008;13.658;2023-04-08T06:37:23;11.87;;;8.17;;
64291;SDS011;50628;51.008;13.658;2023-04-08T06:42:25;13.30;;;9.07;;
64291;SDS011;50628;51.008;13.658;2023-04-08T06:47:43;13.07;;;9.80;;
64291;SDS011;50628;51.008;13.658;2023-04-08T06:52:45;12.77;;;10.00;;
64291;SDS011;50628;51.008;13.658;2023-04-08T06:57:47;15.13;;;11.70;;
64291;SDS011;50628;51.008;13.658;2023-04-08T07:02:50;19.77;;;12.20;;
64291;SDS011;50628;51.008;13.658;2023-04-08T07:07:52;25.00;;;16.93;;
64291;SDS011;50628;51.008;13.658;2023-04-08T07:12:54;16.90;;;11.93;;
64291;SDS011;50628;51.008;13.658;2023-04-08T07:17:57;26.70;;;17.77;;
64291;SDS011;50628;51.008;13.658;2023-04-08T07:22:59;20.63;;;15.57;;
64291;SDS011;50628;51.008;13.658;2023-04-08T07:28:01;23.77;;;17.10;;
64291;SDS011;50628;51.008;13.658;2023-04-08T07:33:04;21.63;;;15.40;;
64291;SDS011;50628;51.008;13.658;2023-04-08T07:38:06;23.97;;;16.27;;
64291;SDS011;50628;51.008;13.658;2023-04-08T07:43:10;23.17;;;15.93;;
64291;SDS011;50628;51.008;13.658;2023-04-08T07:48:13;20.40;;;15.07;;
64291;SDS011;50628;51.008;13.658;2023-04-08T07:53:15;22.23;;;14.67;;
64291;SDS011;50628;51.008;13.658;2023-04-08T07:58:18;18.67;;;13.27;;
64291;SDS011;50628;51.008;13.658;2023-04-08T08:03:21;18.73;;;12.77;;
64291;SDS011;50628;51.008;13.658;2023-04-08T08:08:23;18.00;;;12.47;;
64291;SDS011;50628;51.008;13.658;2023-04-08T08:13:25;15.07;;;10.93;;
64291;SDS011;50628;51.008;13.658;2023-04-08T08:18:28;13.20;;;10.17;;
64291;SDS011;50628;51.008;13.658;2023-04-08T08:23:30;13.43;;;10.83;;
64291;SDS011;50628;51.008;13.658;2023-04-08T08:28:32;14.07;;;10.10;;
64291;SDS011;50628;51.008;13.658;2023-04-08T08:33:35;13.93;;;9.03;;
64291;SDS011;50628;51.008;13.658;2023-04-08T08:38:37;13.13;;;8.90;;
64291;SDS011;50628;51.008;13.658;2023-04-08T08:43:39;11.73;;;9.23;;
64291;SDS011;50628;51.008;13.658;2023-04-08T08:48:43;14.20;;;10.80;;
64291;SDS011;50628;51.008;13.658;2023-04-08T08:53:45;16.93;;;12.50;;
64291;SDS011;50628;51.008;13.658;2023-04-08T08:58:46;10.77;;;8.87;;
64291;SDS011;50628;51.008;13.658;2023-04-08T09:03:51;12.37;;;9.17;;
64291;SDS011;50628;51.008;13.658;2023-04-08T09:09:07;117.70;;;79.37;;
64291;SDS011;50628;51.008;13.658;2023-04-08T09:14:19;13.43;;;10.27;;
64291;SDS011;50628;51.008;13.658;2023-04-08T09:19:23;14.53;;;10.07;;
64291;SDS011;50628;51.008;13.658;2023-04-08T09:24:26;11.73;;;9.97;;
64291;SDS011;50628;51.008;13.658;2023-04-08T09:29:29;9.73;;;7.60;;
64291;SDS011;50628;51.008;13.658;2023-04-08T09:34:32;14.50;;;9.77;;
64291;SDS011;50628;51.008;13.658;2023-04-08T09:39:34;26.67;;;22.70;;
64291;SDS011;50628;51.008;13.658;2023-04-08T09:44:36;9.50;;;8.43;;
64291;SDS011;50628;51.008;13.658;2023-04-08T09:49:43;11.60;;;9.10;;
64291;SDS011;50628;51.008;13.658;2023-04-08T09:54:51;10.83;;;9.00;;
64291;SDS011;50628;51.008;13.658;2023-04-08T09:59:57;12.30;;;9.33;;
64291;SDS011;50628;51.008;13.658;2023-04-08T10:05:15;12.83;;;9.43;;
64291;SDS011;50628;51.008;13.658;2023-04-08T10:10:18;12.10;;;8.70;;
64291;SDS011;50628;51.008;13.658;2023-04-08T10:15:21;12.60;;;9.70;;
64291;SDS011;50628;51.008;13.658;2023-04-08T10:20:42;12.70;;;8.90;;
64291;SDS011;50628;51.008;13.658;2023-04-08T10:25:45;14.73;;;10.60;;
64291;SDS011;50628;51.008;13.658;2023-04-08T10:30:48;15.60;;;10.27;;
64291;SDS011;50628;51.008;13.658;2023-04-08T10:35:53;13.43;;;10.20;;
64291;SDS011;50628;51.008;13.658;2023-04-08T10:40:59;14.13;;;9.90;;
64291;SDS011;50628;51.008;13.658;2023-04-08T10:46:01;14.50;;;10.70;;
64291;SDS011;50628;51.008;13.658;2023-04-08T10:51:05;14.07;;;9.83;;
64291;SDS011;50628;51.008;13.658;2023-04-08T10:56:07;13.17;;;9.50;;
64291;SDS011;50628;51.008;13.658;2023-04-08T11:01:12;12.27;;;9.23;;
64291;SDS011;50628;51.008;13.658;2023-04-08T11:06:15;12.03;;;8.27;;
64291;SDS011;50628;51.008;13.658;2023-04-08T11:11:18;11.37;;;8.10;;
64291;SDS011;50628;51.008;13.658;2023-04-08T11:16:20;11.63;;;7.43;;
64291;SDS011;50628;51.008;13.658;2023-04-08T11:21:24;12.07;;;8.53;;
64291;SDS011;50628;51.008;13.658;2023-04-08T11:26:28;16.23;;;8.63;;
64291;SDS011;50628;51.008;13.658;2023-04-08T11:31:31;14.07;;;8.80;;
64291;SDS011;50628;51.008;13.658;2023-04-08T11:36:35;13.33;;;9.17;;
64291;SDS011;50628;51.008;13.658;2023-04-08T11:41:37;12.60;;;10.30;;
64291;SDS011;50628;51.008;13.658;2023-04-08T11:46:39;17.53;;;12.37;;
64291;SDS011;50628;51.008;13.658;2023-04-08T11:57:00;20.10;;;13.70;;
64291;SDS011;50628;51.008;13.658;2023-04-08T12:02:02;24.20;;;14.70;;
64291;SDS011;50628;51.008;13.658;2023-04-08T12:07:06;21.57;;;15.30;;
64291;SDS011;50628;51.008;13.658;2023-04-08T12:12:07;20.03;;;15.73;;
64291;SDS011;50628;51.008;13.658;2023-04-08T12:17:09;20.63;;;16.07;;
64291;SDS011;50628;51.008;13.658;2023-04-08T12:22:13;22.10;;;16.20;;
64291;SDS011;50628;51.008;13.658;2023-04-08T12:27:15;21.63;;;15.83;;
64291;SDS011;50628;51.008;13.658;2023-04-08T12:32:17;21.70;;;16.53;;
64291;SDS011;50628;51.008;13.658;2023-04-08T12:37:20;26.80;;;16.40;;
64291;SDS011;50628;51.008;13.658;2023-04-08T12:42:22;23.57;;;15.90;;
64291;SDS011;50628;51.008;13.658;2023-04-08T12:47:24;24.17;;;18.57;;
64291;SDS011;50628;51.008;13.658;2023-04-08T12:52:27;23.47;;;17.67;;
64291;SDS011;50628;51.008;13.658;2023-04-08T12:57:29;29.87;;;19.70;;
64291;SDS011;50628;51.008;13.658;2023-04-08T13:02:31;29.40;;;19.23;;
64291;SDS011;50628;51.008;13.658;2023-04-08T13:07:34;27.57;;;20.23;;
64291;SDS011;50628;51.008;13.658;2023-04-08T13:12:37;35.47;;;20.73;;
64291;SDS011;50628;51.008;13.658;2023-04-08T13:17:39;25.17;;;19.77;;
64291;SDS011;50628;51.008;13.658;2023-04-08T13:22:42;30.83;;;20.50;;
64291;SDS011;50628;51.008;13.658;2023-04-08T13:27:44;27.13;;;19.73;;
64291;SDS011;50628;51.008;13.658;2023-04-08T13:32:46;34.80;;;20.80;;
64291;SDS011;50628;51.008;13.658;2023-04-08T13:37:49;22.07;;;18.13;;
64291;SDS011;50628;51.008;13.658;2023-04-08T13:42:51;33.63;;;19.57;;
64291;SDS011;50628;51.008;13.658;2023-04-08T13:47:53;29.47;;;17.40;;
64291;SDS011;50628;51.008;13.658;2023-04-08T13:52:57;30.23;;;18.43;;
64291;SDS011;50628;51.008;13.658;2023-04-08T13:57:59;23.87;;;16.70;;
64291;SDS011;50628;51.008;13.658;2023-04-08T14:03:01;20.43;;;14.27;;
64291;SDS011;50628;51.008;13.658;2023-04-08T14:08:04;28.73;;;14.73;;
64291;SDS011;50628;51.008;13.658;2023-04-08T14:13:06;35.03;;;14.63;;
64291;SDS011;50628;51.008;13.658;2023-04-08T14:18:08;18.13;;;12.93;;
64291;SDS011;50628;51.008;13.658;2023-04-08T14:23:13;20.20;;;13.13;;
64291;SDS011;50628;51.008;13.658;2023-04-08T14:28:16;21.43;;;13.37;;
64291;SDS011;50628;51.008;13.658;2023-04-08T14:33:17;22.67;;;13.37;;
64291;SDS011;50628;51.008;13.658;2023-04-08T14:38:21;17.73;;;12.77;;
64291;SDS011;50628;51.008;13.658;2023-04-08T14:43:22;17.83;;;11.50;;
64291;SDS011;50628;51.008;13.658;2023-04-08T14:48:24;26.00;;;13.23;;
64291;SDS011;50628;51.008;13.658;2023-04-08T14:53:30;20.37;;;13.10;;
64291;SDS011;50628;51.008;13.658;2023-04-08T14:58:32;15.30;;;11.27;;
64291;SDS011;50628;51.008;13.658;2023-04-08T15:03:34;19.10;;;12.40;;
64291;SDS011;50628;51.008;13.658;2023-04-08T15:08:37;21.87;;;12.37;;
64291;SDS011;50628;51.008;13.658;2023-04-08T15:13:39;16.13;;;11.70;;
64291;SDS011;50628;51.008;13.658;2023-04-08T15:18:41;17.97;;;11.03;;
64291;SDS011;50628;51.008;13.658;2023-04-08T15:23:44;16.03;;;11.83;;
64291;SDS011;50628;51.008;13.658;2023-04-08T15:28:46;16.20;;;10.63;;
64291;SDS011;50628;51.008;13.658;2023-04-08T15:33:48;21.23;;;11.70;;
64291;SDS011;50628;51.008;13.658;2023-04-08T15:38:51;23.47;;;11.27;;
64291;SDS011;50628;51.008;13.658;2023-04-08T15:43:53;26.80;;;11.80;;
64291;SDS011;50628;51.008;13.658;2023-04-08T15:48:55;29.13;;;13.60;;
64291;SDS011;50628;51.008;13.658;2023-04-08T15:53:58;36.67;;;16.57;;
64291;SDS011;50628;51.008;13.658;2023-04-08T15:59:00;39.37;;;14.73;;
64291;SDS011;50628;51.008;13.658;2023-04-08T16:04:02;21.10;;;12.53;;
64291;SDS011;50628;51.008;13.658;2023-04-08T16:09:05;21.27;;;13.97;;
64291;SDS011;50628;51.008;13.658;2023-04-08T16:14:09;31.53;;;14.23;;
64291;SDS011;50628;51.008;13.658;2023-04-08T16:19:12;23.97;;;15.07;;
64291;SDS011;50628;51.008;13.658;2023-04-08T16:24:15;26.87;;;15.13;;
64291;SDS011;50628;51.008;13.658;2023-04-08T16:29:19;19.53;;;15.70;;
64291;SDS011;50628;51.008;13.658;2023-04-08T16:34:22;21.60;;;15.67;;
64291;SDS011;50628;51.008;13.658;2023-04-08T16:39:25;31.40;;;17.30;;
64291;SDS011;50628;51.008;13.658;2023-04-08T16:44:27;30.50;;;18.10;;
64291;SDS011;50628;51.008;13.658;2023-04-08T16:49:29;24.00;;;17.30;;
64291;SDS011;50628;51.008;13.658;2023-04-08T16:54:32;24.03;;;16.13;;
64291;SDS011;50628;51.008;13.658;2023-04-08T16:59:34;26.87;;;15.10;;
64291;SDS011;50628;51.008;13.658;2023-04-08T17:04:35;21.97;;;14.90;;
64291;SDS011;50628;51.008;13.658;2023-04-08T17:09:39;24.50;;;16.53;;
64291;SDS011;50628;51.008;13.658;2023-04-08T17:14:41;23.50;;;16.77;;
64291;SDS011;50628;51.008;13.658;2023-04-08T17:19:42;30.27;;;19.37;;
64291;SDS011;50628;51.008;13.658;2023-04-08T17:24:46;29.47;;;20.23;;
64291;SDS011;50628;51.008;13.658;2023-04-08T17:29:48;25.57;;;17.77;;
64291;SDS011;50628;51.008;13.658;2023-04-08T17:34:55;27.90;;;15.90;;
64291;SDS011;50628;51.008;13.658;2023-04-08T17:39:58;28.10;;;16.10;;
64291;SDS011;50628;51.008;13.658;2023-04-08T17:45:00;23.00;;;16.37;;
64291;SDS011;50628;51.008;13.658;2023-04-08T17:50:02;21.10;;;15.03;;
64291;SDS011;50628;51.008;13.658;2023-04-08T17:55:06;23.60;;;15.30;;
64291;SDS011;50628;51.008;13.658;2023-04-08T18:00:09;28.97;;;17.10;;
64291;SDS011;50628;51.008;13.658;2023-04-08T18:05:12;24.17;;;15.47;;
64291;SDS011;50628;51.008;13.658;2023-04-08T18:10:16;25.20;;;16.70;;
64291;SDS011;50628;51.008;13.658;2023-04-08T18:15:18;21.80;;;16.20;;
64291;SDS011;50628;51.008;13.658;2023-04-08T18:20:20;22.77;;;16.90;;
64291;SDS011;50628;51.008;13.658;2023-04-08T18:25:28;21.93;;;17.30;;
64291;SDS011;50628;51.008;13.658;2023-04-08T18:30:30;27.53;;;16.27;;
64291;SDS011;50628;51.008;13.658;2023-04-08T18:35:32;22.47;;;16.90;;
64291;SDS011;50628;51.008;13.658;2023-04-08T18:40:36;20.93;;;16.27;;
64291;SDS011;50628;51.008;13.658;2023-04-08T18:45:38;20.43;;;16.20;;
64291;SDS011;50628;51.008;13.658;2023-04-08T18:50:40;28.73;;;17.67;;
64291;SDS011;50628;51.008;13.658;2023-04-08T18:55:43;24.73;;;18.87;;
64291;SDS011;50628;51.008;13.658;2023-04-08T19:00:45;24.30;;;18.00;;
64291;SDS011;50628;51.008;13.658;2023-04-08T19:05:47;29.87;;;20.97;;
64291;SDS011;50628;51.008;13.658;2023-04-08T19:10:50;35.03;;;23.80;;
64291;SDS011;50628;51.008;13.658;2023-04-08T19:15:52;30.07;;;20.67;;
64291;SDS011;50628;51.008;13.658;2023-04-08T19:20:54;22.80;;;18.03;;
64291;SDS011;50628;51.008;13.658;2023-04-08T19:25:57;27.10;;;19.30;;
64291;SDS011;50628;51.008;13.658;2023-04-08T19:30:59;36.77;;;27.63;;
64291;SDS011;50628;51.008;13.658;2023-04-08T19:36:01;29.77;;;21.87;;
64291;SDS011;50628;51.008;13.658;2023-04-08T19:41:05;41.17;;;27.23;;
64291;SDS011;50628;51.008;13.658;2023-04-08T19:46:07;25.87;;;17.33;;
64291;SDS011;50628;51.008;13.658;2023-04-08T19:51:13;22.30;;;17.20;;
64291;SDS011;50628;51.008;13.658;2023-04-08T19:56:17;27.93;;;19.10;;
64291;SDS011;50628;51.008;13.658;2023-04-08T20:01:19;22.63;;;17.07;;
64291;SDS011;50628;51.008;13.658;2023-04-08T20:06:21;29.63;;;19.43;;
64291;SDS011;50628;51.008;13.658;2023-04-08T20:11:24;29.73;;;21.53;;
64291;SDS011;50628;51.008;13.658;2023-04-08T20:16:26;28.80;;;21.70;;
64291;SDS011;50628;51.008;13.658;2023-04-08T20:21:28;30.30;;;22.00;;
64291;SDS011;50628;51.008;13.658;2023-04-08T20:26:31;37.77;;;27.03;;
64291;SDS011;50628;51.008;13.658;2023-04-08T20:31:33;34.30;;;23.70;;
64291;SDS011;50628;51.008;13.658;2023-04-08T20:36:35;30.13;;;22.07;;
64291;SDS011;50628;51.008;13.658;2023-04-08T20:41:38;32.77;;;20.73;;
64291;SDS011;50628;51.008;13.658;2023-04-08T20:46:40;29.67;;;20.97;;
64291;SDS011;50628;51.008;13.658;2023-04-08T20:51:42;32.73;;;21.10;;
64291;SDS011;50628;51.008;13.658;2023-04-08T20:56:45;32.83;;;23.53;;
64291;SDS011;50628;51.008;13.658;2023-04-08T21:01:47;37.97;;;26.33;;
64291;SDS011;50628;51.008;13.658;2023-04-08T21:06:49;37.10;;;26.30;;
64291;SDS011;50628;51.008;13.658;2023-04-08T21:11:52;30.13;;;22.17;;
64291;SDS011;50628;51.008;13.658;2023-04-08T21:16:54;32.77;;;22.90;;
64291;SDS011;50628;51.008;13.658;2023-04-08T21:21:56;31.80;;;21.30;;
64291;SDS011;50628;51.008;13.658;2023-04-08T21:27:00;32.93;;;25.70;;
64291;SDS011;50628;51.008;13.658;2023-04-08T21:32:01;29.00;;;22.30;;
64291;SDS011;50628;51.008;13.658;2023-04-08T21:37:03;31.17;;;21.80;;
64291;SDS011;50628;51.008;13.658;2023-04-08T21:42:06;28.23;;;20.13;;
64291;SDS011;50628;51.008;13.658;2023-04-08T21:47:08;29.20;;;20.73;;
64291;SDS011;50628;51.008;13.658;2023-04-08T21:52:10;29.00;;;22.77;;
64291;SDS011;50628;51.008;13.658;2023-04-08T21:57:13;35.73;;;23.53;;
64291;SDS011;50628;51.008;13.658;2023-04-08T22:02:15;33.00;;;23.90;;
64291;SDS011;50628;51.008;13.658;2023-04-08T22:07:17;37.47;;;25.20;;
64291;SDS011;50628;51.008;13.658;2023-04-08T22:12:20;32.60;;;21.60;;
64291;SDS011;50628;51.008;13.658;2023-04-08T22:17:22;28.60;;;19.73;;
64291;SDS011;50628;51.008;13.658;2023-04-08T22:22:24;27.37;;;19.53;;
64291;SDS011;50628;51.008;13.658;2023-04-08T22:27:27;28.73;;;20.97;;
64291;SDS011;50628;51.008;13.658;2023-04-08T22:32:29;29.87;;;21.20;;
64291;SDS011;50628;51.008;13.658;2023-04-08T22:37:31;30.07;;;22.00;;
64291;SDS011;50628;51.008;13.658;2023-04-08T22:42:34;29.40;;;19.77;;
64291;SDS011;50628;51.008;13.658;2023-04-08T22:47:36;27.53;;;21.40;;
64291;SDS011;50628;51.008;13.658;2023-04-08T22:52:38;26.03;;;19.40;;
64291;SDS011;50628;51.008;13.658;2023-04-08T22:57:42;34.47;;;22.67;;
64291;SDS011;50628;51.008;13.658;2023-04-08T23:02:43;29.67;;;22.03;;
64291;SDS011;50628;51.008;13.658;2023-04-08T23:07:46;25.73;;;18.93;;
64291;SDS011;50628;51.008;13.658;2023-04-08T23:12:49;29.60;;;21.20;;
64291;SDS011;50628;51.008;13.658;2023-04-08T23:17:51;28.60;;;21.63;;
64291;SDS011;50628;51.008;13.658;2023-04-08T23:22:52;28.97;;;21.70;;
64291;SDS011;50628;51.008;13.658;2023-04-08T23:27:56;26.80;;;19.97;;
64291;SDS011;50628;51.008;13.658;2023-04-08T23:32:58;27.63;;;19.90;;
64291;SDS011;50628;51.008;13.658;2023-04-08T23:37:59;28.43;;;21.13;;
64291;SDS011;50628;51.008;13.658;2023-04-08T23:43:03;27.07;;;19.90;;
64291;SDS011;50628;51.008;13.658;2023-04-08T23:48:05;33.33;;;22.63;;
64291;SDS011;50628;51.008;13.658;2023-04-08T23:53:07;30.93;;;22.73;;
64291;SDS011;50628;51.008;13.658;2023-04-08T23:58:10;31.03;;;21.87;;
